createdAt,value
2019-04-20T00:01:22.878Z,43.21
2019-04-20T00:06:21.954Z,43.27
2019-04-20T00:11:34.924Z,43.27
2019-04-20T00:16:31.710Z,43.05
2019-04-20T00:21:56.365Z,42.78
2019-04-20T00:32:11.468Z,43.07
2019-04-20T00:37:05.155Z,43.42
2019-04-20T00:42:12.644Z,43.42
2019-04-20T00:47:31.773Z,43.50
2019-04-20T00:52:37.511Z,43.15
2019-04-20T00:57:36.865Z,43.40
2019-04-20T01:02:45.506Z,43.45
2019-04-20T01:08:00.175Z,43.22
2019-04-20T01:13:08.719Z,43.21
2019-04-20T01:18:10.638Z,43.21
2019-04-20T01:23:17.239Z,42.86
2019-04-20T01:28:35.854Z,42.86
2019-04-20T01:33:36.509Z,43.25
2019-04-20T01:38:45.119Z,43.41
2019-04-20T01:43:35.385Z,43.41
2019-04-20T01:48:41.334Z,43.50
2019-04-20T01:54:09.151Z,43.74
2019-04-20T01:59:26.661Z,43.36
2019-04-20T02:04:37.577Z,43.97
2019-04-20T02:09:48.352Z,44.34
2019-04-20T02:14:50.496Z,43.71
2019-04-20T02:20:10.419Z,43.71
2019-04-20T02:24:57.068Z,44.11
2019-04-20T02:30:29.940Z,44.11
2019-04-20T02:35:53.962Z,44.16
2019-04-20T02:40:56.812Z,44.16
2019-04-20T02:46:15.513Z,44.43
2019-04-20T02:51:10.528Z,44.21
2019-04-20T02:56:12.969Z,44.21
2019-04-20T03:01:30.934Z,44.42
2019-04-20T03:06:30.692Z,44.89
2019-04-20T03:11:52.938Z,44.56
2019-04-20T03:16:45.493Z,44.58
2019-04-20T03:22:00.404Z,44.40
2019-04-20T03:26:59.872Z,44.40
2019-04-20T03:32:50.177Z,45.25
2019-04-20T03:37:38.074Z,45.41
2019-04-20T03:42:16.043Z,45.23
2019-04-20T03:47:31.569Z,45.23
2019-04-20T03:52:58.308Z,45.59
2019-04-20T03:58:31.743Z,45.59
2019-04-20T04:08:39.006Z,45.75
2019-04-20T04:13:37.766Z,45.71
2019-04-20T04:18:47.211Z,46.39
2019-04-20T04:24:02.468Z,46.16
2019-04-20T04:29:12.683Z,46.16
2019-04-20T04:34:17.401Z,46.03
2019-04-20T04:39:29.366Z,46.34
2019-04-20T04:44:23.838Z,46.46
2019-04-20T04:49:24.920Z,46.39
2019-04-20T04:54:30.543Z,46.84
2019-04-20T04:59:27.538Z,46.93
2019-04-20T05:05:19.347Z,47.04
2019-04-20T05:09:59.188Z,46.79
2019-04-20T05:15:10.158Z,46.79
2019-04-20T05:20:29.044Z,46.48
2019-04-20T05:26:04.052Z,46.58
2019-04-20T05:30:46.915Z,47.05
2019-04-20T05:36:28.144Z,46.79
2019-04-20T05:41:32.709Z,46.86
2019-04-20T05:46:37.466Z,46.54
2019-04-20T05:51:43.262Z,47.00
2019-04-20T05:56:52.421Z,47.21
2019-04-20T06:01:57.659Z,47.21
2019-04-20T06:06:59.635Z,47.09
2019-04-20T06:12:18.008Z,47.15
2019-04-20T06:17:31.368Z,47.00
2019-04-20T06:22:48.332Z,47.12
2019-04-20T06:27:52.796Z,47.22
2019-04-20T06:33:38.799Z,47.29
2019-04-20T06:43:46.030Z,47.15
2019-04-20T06:48:52.343Z,47.95
2019-04-20T06:53:52.611Z,47.95
2019-04-20T06:59:12.558Z,34.82
2019-04-20T07:04:33.470Z,34.92
2019-04-20T07:09:26.255Z,34.87
2019-04-20T07:14:11.121Z,34.87
2019-04-20T07:19:36.535Z,35.94
2019-04-20T07:24:55.125Z,36.32
2019-04-20T07:29:57.096Z,37.27
2019-04-20T07:34:56.858Z,37.49
2019-04-20T07:40:07.510Z,37.49
2019-04-20T07:45:16.847Z,38.15
2019-04-20T07:50:09.132Z,38.13
2019-04-20T07:55:33.154Z,38.13
2019-04-20T08:00:38.547Z,38.51
2019-04-20T08:05:30.565Z,38.69
2019-04-20T08:10:39.446Z,38.69
2019-04-20T08:16:07.328Z,39.36
2019-04-20T08:20:59.595Z,39.62
2019-04-20T08:25:52.305Z,39.67
2019-04-20T08:31:18.218Z,39.67
2019-04-20T08:36:33.249Z,39.68
2019-04-20T08:41:29.694Z,39.70
2019-04-20T08:46:57.115Z,39.85
2019-04-20T08:51:55.077Z,40.34
2019-04-20T08:56:42.754Z,40.41
2019-04-20T09:01:40.692Z,40.41
2019-04-20T09:06:57.207Z,40.24
2019-04-20T09:12:11.907Z,40.33
2019-04-20T09:17:08.072Z,40.53
2019-04-20T09:22:40.531Z,40.94
2019-04-20T09:27:43.564Z,41.10
2019-04-20T09:33:08.021Z,41.10
2019-04-20T09:38:11.794Z,40.86
2019-04-20T09:43:32.329Z,41.02
2019-04-20T09:48:42.636Z,41.04
2019-04-20T09:53:52.623Z,41.41
2019-04-20T09:59:09.854Z,41.29
2019-04-20T10:03:52.490Z,41.73
2019-04-20T10:09:00.075Z,41.12
2019-04-20T10:14:02.233Z,41.27
2019-04-20T10:19:08.728Z,41.78
2019-04-20T10:24:12.578Z,41.11
2019-04-20T10:29:17.439Z,39.66
2019-04-20T10:34:23.998Z,39.66
2019-04-20T10:39:28.769Z,40.17
2019-04-20T10:44:32.774Z,38.56
2019-04-20T10:49:37.365Z,38.13
2019-04-20T10:54:42.652Z,38.13
2019-04-20T10:59:47.734Z,37.19
2019-04-20T11:04:52.644Z,36.09
2019-04-20T11:10:10.667Z,36.27
2019-04-20T11:15:02.954Z,36.42
2019-04-20T11:20:07.494Z,36.16
2019-04-20T11:25:12.431Z,36.16
2019-04-20T11:30:16.681Z,35.33
2019-04-20T11:35:28.082Z,35.54
2019-04-20T11:40:26.754Z,34.72
2019-04-20T11:45:31.067Z,35.75
2019-04-20T11:50:35.681Z,35.33
2019-04-20T11:55:40.431Z,35.56
2019-04-20T12:00:58.642Z,35.28
2019-04-20T12:05:57.468Z,35.16
2019-04-20T12:11:03.139Z,35.48
2019-04-20T12:16:05.688Z,35.49
2019-04-20T12:21:10.595Z,36.07
2019-04-20T12:26:15.041Z,36.07
2019-04-20T12:31:22.793Z,36.40
2019-04-20T12:36:26.032Z,36.67
2019-04-20T12:41:37.830Z,36.36
2019-04-20T12:46:35.993Z,36.36
2019-04-20T12:51:47.536Z,36.62
2019-04-20T12:56:46.572Z,36.77
2019-04-20T13:01:51.384Z,35.99
2019-04-20T13:06:55.467Z,35.99
2019-04-20T13:12:11.974Z,36.34
2019-04-20T13:17:16.531Z,36.50
2019-04-20T13:22:21.135Z,36.58
2019-04-20T13:33:51.933Z,35.27
2019-04-20T13:38:56.385Z,35.93
2019-04-20T13:44:01.986Z,35.79
2019-04-20T13:49:07.038Z,36.01
2019-04-20T13:54:14.986Z,36.57
2019-04-20T13:59:48.129Z,36.57
2019-04-20T14:04:55.084Z,35.98
2019-04-20T14:09:59.497Z,35.98
2019-04-20T14:15:05.011Z,34.32
2019-04-20T14:20:13.206Z,34.32
2019-04-20T14:25:15.340Z,34.60
2019-04-20T14:30:19.373Z,35.16
2019-04-20T14:35:23.178Z,35.78
2019-04-20T14:40:28.245Z,35.78
2019-04-20T14:45:32.380Z,35.54
2019-04-20T14:50:36.189Z,35.46
2019-04-20T14:55:40.070Z,36.06
2019-04-20T15:00:58.991Z,35.76
2019-04-20T15:06:03.376Z,35.76
2019-04-20T15:11:07.638Z,36.24
2019-04-20T15:16:12.724Z,36.24
2019-04-20T15:21:17.622Z,36.37
2019-04-20T15:26:22.458Z,36.44
2019-04-20T15:31:26.468Z,35.98
2019-04-20T15:36:30.243Z,36.10
2019-04-20T15:41:35.719Z,36.10
2019-04-20T15:46:39.985Z,36.07
2019-04-20T15:51:46.041Z,34.88
2019-04-20T15:56:56.942Z,34.88
2019-04-20T16:02:00.145Z,34.46
2019-04-20T16:07:05.418Z,35.33
2019-04-20T16:12:10.925Z,35.91
2019-04-20T16:17:15.263Z,35.91
2019-04-20T16:22:21.684Z,35.80
2019-04-20T16:27:38.543Z,36.35
2019-04-20T16:32:42.741Z,36.15
2019-04-20T16:37:46.653Z,36.31
2019-04-20T16:42:50.514Z,36.85
2019-04-20T16:47:54.530Z,36.35
2019-04-20T16:52:59.095Z,36.35
2019-04-20T16:58:03.824Z,36.87
2019-04-20T17:03:09.090Z,37.26
2019-04-20T17:08:13.202Z,37.28
2019-04-20T17:13:30.414Z,37.28
2019-04-20T17:18:23.545Z,37.22
2019-04-20T17:23:27.709Z,37.46
2019-04-20T17:28:49.205Z,37.39
2019-04-20T17:34:04.735Z,37.63
2019-04-20T17:39:11.434Z,38.08
2019-04-20T17:44:29.078Z,38.39
2019-04-20T17:49:31.632Z,38.42
2019-04-20T17:54:31.731Z,38.50
2019-04-20T17:59:38.131Z,38.52
2019-04-20T18:05:14.232Z,37.59
2019-04-20T18:10:15.309Z,37.42
2019-04-20T18:15:21.056Z,37.42
2019-04-20T18:20:12.663Z,37.03
2019-04-20T18:25:38.484Z,37.15
2019-04-20T18:30:48.846Z,36.91
2019-04-20T18:35:47.574Z,36.76
2019-04-20T18:41:00.426Z,37.05
2019-04-20T18:46:12.437Z,37.04
2019-04-20T18:51:03.818Z,37.16
2019-04-20T18:56:08.167Z,37.22
2019-04-20T19:01:13.229Z,37.22
2019-04-20T19:06:18.060Z,37.24
2019-04-20T19:11:24.964Z,37.47
2019-04-20T19:16:49.716Z,37.47
2019-04-20T19:21:41.071Z,37.40
2019-04-20T19:26:50.752Z,37.56
2019-04-20T19:32:15.858Z,37.58
2019-04-20T19:37:06.336Z,37.15
2019-04-20T19:42:22.387Z,37.65
2019-04-20T19:47:28.458Z,37.65
2019-04-20T19:52:39.622Z,37.83
2019-04-20T19:57:37.325Z,38.14
2019-04-20T20:02:25.924Z,38.26
2019-04-20T20:07:38.034Z,38.27
2019-04-20T20:12:35.684Z,38.33
2019-04-20T20:18:01.937Z,37.90
2019-04-20T20:22:49.793Z,38.31
2019-04-20T20:27:57.421Z,37.87
2019-04-20T20:33:16.028Z,37.87
2019-04-20T20:38:13.338Z,38.70
2019-04-20T20:43:18.436Z,38.30
2019-04-20T20:48:30.022Z,38.30
2019-04-20T20:53:32.868Z,38.36
2019-04-20T20:58:37.465Z,39.01
2019-04-20T21:03:37.004Z,39.01
2019-04-20T21:08:44.875Z,39.16
2019-04-20T21:13:45.220Z,38.19
2019-04-20T21:18:59.869Z,38.72
2019-04-20T21:24:06.600Z,38.78
2019-04-20T21:29:03.861Z,38.87
2019-04-20T21:34:14.490Z,39.26
2019-04-20T21:39:22.318Z,39.26
2019-04-20T21:44:25.220Z,39.51
2019-04-20T21:49:38.741Z,39.51
2019-04-20T21:54:31.963Z,39.92
2019-04-20T21:59:43.261Z,39.77
2019-04-20T22:04:45.245Z,39.90
2019-04-20T22:09:53.104Z,39.17
2019-04-20T22:15:00.763Z,39.17
2019-04-20T22:20:11.972Z,39.96
2019-04-20T22:25:23.497Z,39.96
2019-04-20T22:30:12.259Z,39.88
2019-04-20T22:35:18.818Z,40.07
2019-04-20T22:40:28.047Z,40.04
2019-04-20T22:45:29.541Z,40.50
2019-04-20T22:50:46.239Z,40.24
2019-04-20T22:56:04.381Z,40.10
2019-04-20T23:00:53.713Z,40.04
2019-04-20T23:05:50.991Z,40.33
2019-04-20T23:10:55.631Z,40.33
2019-04-20T23:16:02.194Z,40.87
2019-04-20T23:21:08.049Z,40.15
2019-04-20T23:26:11.427Z,40.15
2019-04-20T23:31:20.137Z,40.35
2019-04-20T23:36:31.897Z,40.39
2019-04-20T23:41:28.003Z,40.18
2019-04-20T23:46:53.473Z,40.53
2019-04-20T23:52:21.403Z,40.42
2019-04-20T23:57:01.831Z,40.42
